Time;durP1;ratioP1;P1;durP2;ratioP2;P2;SDS_P1;SDS_P2;PMS_P1;PMS_P2;Temp;Humidity;BMP_temperature;BMP_pressure;BME280_temperature;BME280_humidity;BME280_pressure;Samples;Min_cycle;Max_cycle;Signal;HPM_P1;HPM_P2
2020/12/07 00:01:04;;;;;;;7.33;5.03;;;;;;;2.51;100.00;94285.00;5038906;28;20429;-88
2020/12/07 00:03:30;;;;;;;6.47;4.80;;;;;;;2.51;100.00;94278.94;5038522;28;20450;-85
2020/12/07 00:05:57;;;;;;;9.20;5.33;;;;;;;2.42;100.00;94277.56;5037950;28;20449;-86
2020/12/07 00:08:24;;;;;;;6.67;5.07;;;;;;;2.40;100.00;94279.34;5036232;28;20429;-86
2020/12/07 00:10:50;;;;;;;9.30;5.00;;;;;;;2.40;100.00;94284.66;5037712;28;20447;-86
2020/12/07 00:13:17;;;;;;;7.27;5.57;;;;;;;2.40;100.00;94276.69;5036331;28;20447;-86
2020/12/07 00:15:43;;;;;;;10.00;6.00;;;;;;;2.45;100.00;94273.13;5036444;28;20472;-85
2020/12/07 00:18:10;;;;;;;8.20;5.80;;;;;;;2.46;100.00;94279.88;5036691;28;20545;-85
2020/12/07 00:20:36;;;;;;;6.97;5.67;;;;;;;2.39;100.00;94277.94;5036190;28;20438;-85
2020/12/07 00:23:04;;;;;;;7.07;4.83;;;;;;;2.40;100.00;94271.38;5036303;28;20422;-85
2020/12/07 00:25:30;;;;;;;6.67;5.50;;;;;;;2.40;100.00;94269.41;5035987;28;20479;-85
2020/12/07 00:27:56;;;;;;;6.20;4.97;;;;;;;2.46;100.00;94261.94;5036183;28;20806;-85
2020/12/07 00:30:23;;;;;;;8.40;6.27;;;;;;;2.43;100.00;94268.34;5036474;28;20940;-85
2020/12/07 00:32:49;;;;;;;10.90;5.30;;;;;;;2.46;100.00;94271.88;5035856;28;20443;-86
2020/12/07 00:35:15;;;;;;;5.30;4.40;;;;;;;2.41;100.00;94265.50;5035871;28;20444;-86
2020/12/07 00:37:42;;;;;;;6.30;5.20;;;;;;;2.43;100.00;94272.97;5035093;28;20449;-86
2020/12/07 00:40:09;;;;;;;7.23;3.93;;;;;;;2.41;100.00;94275.47;5036002;28;20448;-85
2020/12/07 00:42:35;;;;;;;4.93;4.20;;;;;;;2.38;100.00;94273.88;5042201;28;20425;-85
2020/12/07 00:45:01;;;;;;;7.00;4.63;;;;;;;2.41;100.00;94267.47;5037208;28;20470;-86
2020/12/07 00:47:28;;;;;;;5.03;4.10;;;;;;;2.40;100.00;94279.34;5035657;28;20441;-88
2020/12/07 00:49:54;;;;;;;5.30;3.97;;;;;;;2.39;100.00;94272.59;5035957;28;20417;-88
2020/12/07 00:52:20;;;;;;;6.00;3.90;;;;;;;2.41;100.00;94265.50;5035986;28;20413;-88
2020/12/07 00:54:47;;;;;;;5.57;4.30;;;;;;;2.43;100.00;94257.69;5036291;28;20410;-88
2020/12/07 00:57:14;;;;;;;4.20;3.60;;;;;;;2.46;100.00;94266.56;5035904;28;20462;-89
2020/12/07 00:59:40;;;;;;;7.83;4.23;;;;;;;2.49;100.00;94287.47;5035612;28;20946;-86
2020/12/07 01:02:07;;;;;;;5.40;3.83;;;;;;;2.52;100.00;94293.69;5035877;28;20421;-86
2020/12/07 01:04:33;;;;;;;6.90;4.43;;;;;;;2.50;100.00;94298.84;5035496;28;20469;-86
2020/12/07 01:06:59;;;;;;;5.13;4.10;;;;;;;2.54;100.00;94299.88;5035356;28;20478;-86
2020/12/07 01:09:26;;;;;;;4.10;3.70;;;;;;;2.67;100.00;94299.66;5035285;28;20435;-86
2020/12/07 01:11:57;;;;;;;4.73;3.73;;;;;;;2.56;100.00;94302.72;5035241;28;20402;-86
2020/12/07 01:14:25;;;;;;;6.00;4.30;;;;;;;2.60;100.00;94302.38;5035207;28;20487;-87
2020/12/07 01:16:52;;;;;;;6.70;4.67;;;;;;;2.56;100.00;94302.00;5035388;28;20441;-87
2020/12/07 01:19:18;;;;;;;5.33;3.90;;;;;;;2.59;100.00;94301.66;5035683;28;20443;-87
2020/12/07 01:21:49;;;;;;;5.97;3.73;;;;;;;2.55;100.00;94295.25;5048860;28;20427;-87
2020/12/07 01:24:16;;;;;;;7.00;5.20;;;;;;;2.47;100.00;94292.66;5059773;28;20426;-88
2020/12/07 01:26:43;;;;;;;5.93;4.00;;;;;;;2.50;100.00;94294.22;5059544;28;20431;-88
2020/12/07 01:29:09;;;;;;;9.30;4.83;;;;;;;2.54;100.00;94283.19;5059704;28;20419;-88
2020/12/07 01:31:36;;;;;;;6.97;4.40;;;;;;;2.54;100.00;94283.19;5043711;28;20440;-87
2020/12/07 01:34:04;;;;;;;7.63;4.00;;;;;;;2.60;100.00;94291.72;5034787;28;20439;-87
2020/12/07 01:36:30;;;;;;;12.80;4.40;;;;;;;2.51;100.00;94290.31;5035084;28;20475;-87
2020/12/07 01:38:56;;;;;;;7.77;5.10;;;;;;;2.45;100.00;94289.78;5035315;28;20435;-87
2020/12/07 01:41:23;;;;;;;5.53;4.67;;;;;;;2.47;100.00;94292.66;5034647;28;20422;-87
2020/12/07 01:43:49;;;;;;;5.57;4.50;;;;;;;2.56;100.00;94291.38;5034482;28;20986;-87
2020/12/07 01:46:19;;;;;;;6.17;4.30;;;;;;;2.62;100.00;94292.59;5034666;28;20461;-87
2020/12/07 01:48:47;;;;;;;5.93;4.40;;;;;;;2.50;100.00;94283.59;5034089;28;20493;-87
2020/12/07 01:51:14;;;;;;;6.33;4.47;;;;;;;2.46;100.00;94275.25;5034204;28;20420;-87
2020/12/07 01:53:41;;;;;;;6.67;4.37;;;;;;;2.48;100.00;94277.38;5034492;28;20437;-87
2020/12/07 01:56:12;;;;;;;8.07;4.40;;;;;;;2.67;100.00;94272.34;5034621;28;20421;-87
2020/12/07 01:58:39;;;;;;;4.33;3.20;;;;;;;2.64;100.00;94281.41;5034022;28;20818;-87
2020/12/07 02:01:06;;;;;;;4.70;3.80;;;;;;;2.62;100.00;94291.88;5034439;28;20803;-88
2020/12/07 02:03:32;;;;;;;4.70;3.83;;;;;;;2.69;100.00;94304.47;5035239;28;20410;-89
2020/12/07 02:05:59;;;;;;;4.73;4.00;;;;;;;2.70;100.00;94308.53;5035369;28;20888;-89
2020/12/07 02:08:26;;;;;;;5.83;4.23;;;;;;;2.57;100.00;94314.06;5035346;28;20462;-89
2020/12/07 02:10:52;;;;;;;4.33;3.47;;;;;;;2.59;100.00;94317.63;5035262;28;20824;-89
2020/12/07 02:13:19;;;;;;;8.23;4.10;;;;;;;2.62;100.00;94337.13;5035271;28;20444;-89
2020/12/07 02:15:46;;;;;;;4.90;3.47;;;;;;;2.71;100.00;94339.22;5035076;28;20443;-89
2020/12/07 02:18:12;;;;;;;4.00;3.23;;;;;;;2.81;100.00;94348.09;5034703;28;20470;-90
2020/12/07 02:20:40;;;;;;;4.30;3.73;;;;;;;2.78;100.00;94354.47;5034768;28;20414;-87
2020/12/07 02:23:06;;;;;;;4.47;3.77;;;;;;;2.75;100.00;94338.88;5036228;28;20436;-87
2020/12/07 02:25:32;;;;;;;4.27;3.17;;;;;;;2.76;100.00;94346.31;5048924;28;20475;-88
2020/12/07 02:27:59;;;;;;;3.83;3.20;;;;;;;2.70;100.00;94351.84;5058644;28;20462;-88
2020/12/07 02:30:25;;;;;;;6.03;3.93;;;;;;;2.73;100.00;94358.03;5058017;28;20458;-88
2020/12/07 02:32:52;;;;;;;3.87;3.20;;;;;;;2.68;100.00;94356.28;5041909;28;20431;-87
2020/12/07 02:35:19;;;;;;;5.33;3.80;;;;;;;2.72;100.00;94358.59;5034774;28;20438;-87
2020/12/07 02:37:47;;;;;;;3.77;2.80;;;;;;;2.72;100.00;94365.31;5034104;28;20473;-87
2020/12/07 02:40:15;;;;;;;4.50;3.70;;;;;;;2.77;100.00;94369.03;5034124;28;20422;-87
2020/12/07 02:42:42;;;;;;;3.63;3.10;;;;;;;2.68;100.00;94378.28;5034374;28;20526;-87
2020/12/07 02:45:10;;;;;;;5.33;2.87;;;;;;;2.60;100.00;94371.56;5034386;28;20490;-89
2020/12/07 02:47:37;;;;;;;3.03;2.83;;;;;;;2.72;100.00;94373.28;5034998;28;21002;-89
2020/12/07 02:50:05;;;;;;;3.87;3.43;;;;;;;2.61;100.00;94373.69;5034939;28;20413;-88
2020/12/07 02:52:32;;;;;;;4.03;3.10;;;;;;;2.68;100.00;94375.63;5034941;28;20451;-89
2020/12/07 02:55:00;;;;;;;3.27;2.60;;;;;;;2.66;100.00;94378.09;5034805;28;20414;-87
2020/12/07 02:57:27;;;;;;;4.47;3.20;;;;;;;2.64;100.00;94377.22;5033735;28;20451;-86
2020/12/07 02:59:53;;;;;;;3.87;2.63;;;;;;;2.70;100.00;94383.06;5035972;28;20438;-87
2020/12/07 03:02:19;;;;;;;2.63;2.43;;;;;;;2.61;100.00;94397.63;5037744;28;20443;-87
2020/12/07 03:04:46;;;;;;;4.47;3.53;;;;;;;2.70;100.00;94397.09;5037835;28;20946;-86
2020/12/07 03:07:13;;;;;;;5.27;2.90;;;;;;;2.66;100.00;94399.41;5037888;28;20474;-87
2020/12/07 03:09:40;;;;;;;4.10;2.83;;;;;;;2.54;100.00;94400.31;5037718;28;20436;-86
2020/12/07 03:12:07;;;;;;;4.07;3.07;;;;;;;2.57;100.00;94407.22;5037615;28;20856;-86
2020/12/07 03:14:34;;;;;;;3.00;2.60;;;;;;;2.61;100.00;94410.94;5037835;28;20810;-86
2020/12/07 03:17:01;;;;;;;3.40;3.00;;;;;;;2.53;100.00;94410.25;5037831;28;20458;-86
2020/12/07 03:19:27;;;;;;;4.13;3.20;;;;;;;2.69;100.00;94421.59;5037715;28;20427;-86
2020/12/07 03:21:54;;;;;;;3.00;2.40;;;;;;;2.62;100.00;94414.31;5039801;28;20409;-86
2020/12/07 03:24:20;;;;;;;2.63;2.43;;;;;;;2.53;100.00;94409.56;5037827;28;20439;-86
2020/12/07 03:26:46;;;;;;;3.20;2.13;;;;;;;2.56;100.00;94411.16;5037451;28;20979;-86
2020/12/07 03:29:13;;;;;;;4.83;2.60;;;;;;;2.61;100.00;94412.91;5037219;28;20433;-85
2020/12/07 03:31:40;;;;;;;2.27;2.10;;;;;;;2.66;100.00;94420.00;5037239;28;20431;-85
2020/12/07 03:34:09;;;;;;;3.23;2.53;;;;;;;2.56;100.00;94413.81;5037575;28;20439;-85
2020/12/07 03:36:35;;;;;;;4.10;2.90;;;;;;;2.54;100.00;94405.63;5037425;28;20454;-86
2020/12/07 03:39:03;;;;;;;4.00;2.80;;;;;;;2.50;100.00;94411.34;5037578;28;20445;-89
2020/12/07 03:41:29;;;;;;;3.50;2.40;;;;;;;2.45;100.00;94414.88;5037670;28;20447;-86
2020/12/07 03:43:55;;;;;;;3.43;2.63;;;;;;;2.42;100.00;94420.53;5037451;28;20927;-86
2020/12/07 03:46:23;;;;;;;4.20;2.90;;;;;;;2.42;100.00;94423.91;5037637;28;20482;-89
2020/12/07 03:48:49;;;;;;;3.30;2.57;;;;;;;2.41;100.00;94422.50;5040486;28;21047;-89
2020/12/07 03:51:15;;;;;;;2.97;2.67;;;;;;;2.51;100.00;94425.31;5040368;28;20422;-88
2020/12/07 03:53:43;;;;;;;3.20;2.33;;;;;;;2.47;100.00;94412.41;5038359;28;20450;-88
2020/12/07 03:56:10;;;;;;;3.13;2.00;;;;;;;2.51;100.00;94410.06;5038057;28;20435;-89
2020/12/07 03:58:36;;;;;;;5.20;2.83;;;;;;;2.48;100.00;94405.09;5037016;28;20466;-89
2020/12/07 04:01:04;;;;;;;4.87;3.20;;;;;;;2.45;100.00;94404.22;5037759;28;20435;-89
2020/12/07 04:03:31;;;;;;;4.17;3.60;;;;;;;2.43;100.00;94392.69;5038310;28;20436;-89
2020/12/07 04:06:02;;;;;;;3.73;2.87;;;;;;;2.41;100.00;94398.53;5037103;28;20586;-89
2020/12/07 04:08:29;;;;;;;5.03;3.17;;;;;;;2.45;100.00;94416.81;5037630;28;20506;-89
2020/12/07 04:10:55;;;;;;;2.93;2.73;;;;;;;2.55;100.00;94417.69;5036323;28;20414;-87
2020/12/07 04:13:22;;;;;;;4.07;3.13;;;;;;;2.70;100.00;94415.00;5036692;28;20418;-87
2020/12/07 04:15:48;;;;;;;3.13;2.80;;;;;;;2.63;100.00;94421.06;5036864;28;20519;-87
2020/12/07 04:18:14;;;;;;;6.80;4.80;;;;;;;2.67;100.00;94435.44;5043231;28;20471;-87
2020/12/07 04:20:42;;;;;;;5.17;3.80;;;;;;;2.66;100.00;94436.66;5060762;28;20427;-87
2020/12/07 04:23:08;;;;;;;4.53;3.20;;;;;;;2.70;100.00;94446.97;5060631;28;20431;-87
2020/12/07 04:25:35;;;;;;;4.20;3.07;;;;;;;2.78;100.00;94453.00;5060606;28;20434;-87
2020/12/07 04:28:01;;;;;;;4.20;3.13;;;;;;;2.74;100.00;94443.94;5043254;28;20440;-86
2020/12/07 04:30:27;;;;;;;5.00;3.10;;;;;;;2.86;100.00;94439.66;5059699;28;20427;-86
2020/12/07 04:32:53;;;;;;;5.40;3.67;;;;;;;2.74;100.00;94447.31;5059756;28;20447;-86
2020/12/07 04:35:20;;;;;;;6.00;2.73;;;;;;;2.81;100.00;94451.22;5060099;28;20443;-87
2020/12/07 04:37:47;;;;;;;4.50;3.40;;;;;;;2.85;100.00;94456.91;5050124;28;20475;-86
2020/12/07 04:40:14;;;;;;;3.50;3.20;;;;;;;2.79;100.00;94454.41;5037531;28;20469;-86
2020/12/07 04:42:41;;;;;;;5.33;2.90;;;;;;;2.77;100.00;94448.91;5036549;28;20435;-86
2020/12/07 04:45:08;;;;;;;5.90;3.73;;;;;;;2.74;100.00;94451.94;5036388;28;20467;-86
2020/12/07 04:47:34;;;;;;;4.40;3.13;;;;;;;2.78;100.00;94455.66;5035949;28;20796;-87
2020/12/07 04:50:03;;;;;;;3.27;2.97;;;;;;;2.88;100.00;94461.84;5036149;28;20439;-87
2020/12/07 04:52:31;;;;;;;7.40;5.50;;;;;;;2.91;100.00;94466.13;5036593;28;20427;-86
2020/12/07 04:55:01;;;;;;;14.30;3.87;;;;;;;2.93;100.00;94454.91;5037053;28;20417;-87
2020/12/07 04:57:27;;;;;;;6.67;2.87;;;;;;;2.88;100.00;94467.16;5036098;28;20447;-87
2020/12/07 04:59:54;;;;;;;5.03;2.67;;;;;;;2.90;100.00;94461.31;5036055;28;20410;-87
2020/12/07 05:02:20;;;;;;;5.30;3.70;;;;;;;2.92;100.00;94448.88;5035967;28;20429;-87
2020/12/07 05:04:46;;;;;;;3.53;2.67;;;;;;;2.89;100.00;94460.59;5035683;28;20446;-87
2020/12/07 05:07:13;;;;;;;6.00;3.70;;;;;;;2.88;100.00;94455.81;5035803;28;20437;-87
2020/12/07 05:09:39;;;;;;;4.60;2.73;;;;;;;2.84;100.00;94456.19;5035690;28;20433;-87
2020/12/07 05:12:12;;;;;;;4.47;3.30;;;;;;;2.85;100.00;94451.56;5035931;28;20448;-86
2020/12/07 05:14:38;;;;;;;6.23;3.60;;;;;;;2.90;100.00;94446.06;5035959;28;20454;-85
2020/12/07 05:17:04;;;;;;;5.93;2.67;;;;;;;2.94;100.00;94451.72;5035932;28;20455;-85
2020/12/07 05:19:31;;;;;;;5.13;3.37;;;;;;;2.90;100.00;94448.72;5036106;28;20908;-85
2020/12/07 05:21:58;;;;;;;5.73;3.00;;;;;;;2.92;100.00;94453.50;5035688;28;20427;-86
2020/12/07 05:24:25;;;;;;;5.57;3.50;;;;;;;2.90;100.00;94448.00;5035360;28;20440;-86
2020/12/07 05:26:52;;;;;;;4.90;3.30;;;;;;;2.89;100.00;94438.59;5036058;28;20899;-86
2020/12/07 05:29:31;;;;;;;7.17;3.90;;;;;;;2.84;100.00;94448.19;5036059;28;20447;-86
2020/12/07 05:31:59;;;;;;;4.80;3.73;;;;;;;2.87;100.00;94449.78;5035410;28;20443;-86
2020/12/07 05:34:25;;;;;;;4.27;3.40;;;;;;;2.88;100.00;94451.19;5037608;28;20518;-89
2020/12/07 05:36:55;;;;;;;7.20;3.97;;;;;;;2.90;100.00;94454.03;5037033;28;20558;-89
2020/12/07 05:39:23;;;;;;;6.23;3.77;;;;;;;2.91;100.00;94454.75;5037037;28;20462;-89
2020/12/07 05:41:51;;;;;;;6.27;3.77;;;;;;;2.94;100.00;94451.03;5036238;28;20442;-89
2020/12/07 05:44:17;;;;;;;5.13;3.70;;;;;;;2.99;100.00;94453.50;5037585;28;20825;-88
2020/12/07 05:46:46;;;;;;;6.00;3.73;;;;;;;2.97;100.00;94461.31;5037990;28;20510;-86
2020/12/07 05:49:16;;;;;;;5.03;4.50;;;;;;;2.92;100.00;94454.22;5035627;28;20482;-86
2020/12/07 05:51:47;;;;;;;8.40;4.10;;;;;;;2.92;100.00;94467.53;5034781;28;20534;-87
2020/12/07 05:54:15;;;;;;;8.23;3.77;;;;;;;2.91;100.00;94471.44;5035440;28;20427;-87
2020/12/07 05:56:44;;;;;;;9.33;5.00;;;;;;;2.95;100.00;94479.06;5035077;28;20436;-86
2020/12/07 05:59:20;;;;;;;5.80;3.87;;;;;;;2.93;100.00;94476.94;5035582;28;20431;-88
2020/12/07 06:01:49;;;;;;;5.87;4.30;;;;;;;2.85;100.00;94478.19;5035846;28;20438;-87
2020/12/07 06:04:17;;;;;;;5.00;3.50;;;;;;;2.80;100.00;94479.78;5035598;28;20513;-87
2020/12/07 06:06:48;;;;;;;5.93;4.20;;;;;;;2.82;100.00;94468.63;5035392;28;20478;-87
2020/12/07 06:09:20;;;;;;;6.20;4.67;;;;;;;2.77;100.00;94478.19;5035811;28;20416;-86
2020/12/07 06:11:53;;;;;;;8.07;5.17;;;;;;;2.76;100.00;94484.06;5035190;28;20783;-87
2020/12/07 06:14:21;;;;;;;9.53;6.50;;;;;;;2.79;100.00;94483.00;5036292;28;20416;-88
2020/12/07 06:16:50;;;;;;;5.60;4.60;;;;;;;2.89;100.00;94489.91;5036398;28;20483;-90
2020/12/07 06:19:18;;;;;;;5.87;4.27;;;;;;;2.83;100.00;94486.72;5038009;28;20805;-88
2020/12/07 06:21:52;;;;;;;7.40;5.20;;;;;;;2.82;100.00;94484.59;5037601;28;20795;-88
2020/12/07 06:24:18;;;;;;;6.93;5.33;;;;;;;2.84;100.00;94490.81;5037885;28;20405;-88
2020/12/07 06:27:00;;;;;;;6.80;4.90;;;;;;;2.78;100.00;94497.56;5037362;28;20566;-86
2020/12/07 06:29:26;;;;;;;9.37;5.70;;;;;;;2.78;100.00;94498.25;5036524;28;20430;-86
2020/12/07 06:31:57;;;;;;;9.97;5.40;;;;;;;2.84;100.00;94516.72;5036421;28;20443;-86
2020/12/07 06:34:23;;;;;;;7.57;5.90;;;;;;;2.86;100.00;94512.28;5039375;28;20796;-86
2020/12/07 06:36:50;;;;;;;10.10;6.43;;;;;;;2.96;100.00;94515.81;5043348;28;20909;-87
2020/12/07 06:39:16;;;;;;;9.40;5.47;;;;;;;3.01;100.00;94520.25;5042243;28;20800;-87
2020/12/07 06:41:44;;;;;;;7.07;5.17;;;;;;;3.06;100.00;94530.03;5042852;28;20788;-86
2020/12/07 06:44:12;;;;;;;6.73;4.90;;;;;;;3.03;100.00;94531.09;5041665;28;20912;-86
2020/12/07 06:46:55;;;;;;;9.13;5.83;;;;;;;2.97;100.00;94525.25;5041663;28;20474;-87
2020/12/07 06:49:36;;;;;;;9.10;5.20;;;;;;;2.97;100.00;94522.56;5041899;28;20454;-87
2020/12/07 06:52:10;;;;;;;15.07;5.20;;;;;;;3.38;100.00;94520.72;5042586;28;20406;-87
2020/12/07 06:57:28;;;;;;;6.63;5.00;;;;;;;3.32;100.00;94526.22;5043558;28;20471;-87
2020/12/07 06:59:56;;;;;;;6.13;4.97;;;;;;;3.15;100.00;94523.44;5042175;28;20481;-87
2020/12/07 07:02:22;;;;;;;10.77;5.00;;;;;;;3.09;100.00;94531.63;5043839;28;21001;-86
2020/12/07 07:04:54;;;;;;;7.73;4.50;;;;;;;3.06;100.00;94537.31;5042263;28;20439;-86
2020/12/07 07:07:21;;;;;;;7.47;5.07;;;;;;;3.04;100.00;94545.09;5041485;28;20980;-86
2020/12/07 07:09:48;;;;;;;7.47;5.03;;;;;;;3.11;100.00;94550.44;5041784;28;20799;-86
2020/12/07 07:12:14;;;;;;;7.37;5.83;;;;;;;3.25;100.00;94548.28;5041999;28;20466;-86
2020/12/07 07:14:42;;;;;;;8.60;5.40;;;;;;;3.45;100.00;94554.63;5042470;28;20446;-87
2020/12/07 07:17:09;;;;;;;10.13;6.13;;;;;;;3.67;100.00;94559.19;5043598;28;20454;-87
2020/12/07 07:19:35;;;;;;;9.63;5.20;;;;;;;3.85;100.00;94560.75;5060677;28;20502;-87
2020/12/07 07:22:03;;;;;;;15.80;5.10;;;;;;;3.94;99.84;94559.47;5064012;28;20431;-88
2020/12/07 07:24:38;;;;;;;6.87;4.50;;;;;;;3.92;98.50;94561.97;5064280;28;20445;-88
2020/12/07 07:27:56;;;;;;;9.60;5.13;;;;;;;3.77;98.55;94544.78;5059823;28;20491;-87
2020/12/07 07:29:52;;;;;;;8.17;4.70;;;;;;;3.58;98.69;94549.81;5042191;28;20432;-87
2020/12/07 07:32:20;;;;;;;5.40;3.90;;;;;;;3.54;99.38;94554.09;5042259;28;20435;-87
2020/12/07 07:34:47;;;;;;;10.73;5.23;;;;;;;3.50;99.29;94551.09;5042905;28;20220;-86
2020/12/07 07:37:15;;;;;;;7.57;5.20;;;;;;;3.71;99.29;94551.53;5042378;28;21050;-89
2020/12/07 07:39:42;;;;;;;7.33;4.77;;;;;;;4.02;98.27;94565.47;5042890;28;20458;-89
2020/12/07 07:42:11;;;;;;;7.90;5.03;;;;;;;3.97;97.33;94567.13;5042984;28;20440;-89
2020/12/07 07:44:40;;;;;;;10.60;5.80;;;;;;;3.91;97.23;94568.56;5044108;28;20972;-89
2020/12/07 07:47:11;;;;;;;7.23;4.47;;;;;;;4.08;97.13;94582.00;5041276;28;20551;-89
2020/12/07 08:07:08;;;;;;;8.87;5.37;;;;;;;4.11;96.69;94589.63;5041741;28;20525;-92
2020/12/07 08:17:59;;;;;;;7.33;4.90;;;;;;;4.26;97.28;94589.56;5043526;28;20467;-90
2020/12/07 08:20:28;;;;;;;8.33;4.70;;;;;;;4.32;96.95;94594.72;5050438;28;20404;-91
2020/12/07 08:22:56;;;;;;;8.73;6.73;;;;;;;4.29;97.29;94593.81;5043522;28;20833;-92
2020/12/07 08:25:50;;;;;;;7.70;5.23;;;;;;;4.30;97.49;94599.88;5047395;28;20402;-88
2020/12/07 08:28:24;;;;;;;4.83;3.40;;;;;;;4.31;97.56;94594.00;5059610;28;20549;-88
2020/12/07 08:31:08;;;;;;;10.50;4.83;;;;;;;4.39;97.39;94609.25;5059997;28;20390;-88
2020/12/07 08:33:37;;;;;;;6.50;4.97;;;;;;;4.41;96.77;94612.09;5048836;28;20451;-92
2020/12/07 08:36:05;;;;;;;9.03;5.60;;;;;;;4.46;96.34;94605.84;5042285;28;20434;-92
2020/12/07 08:38:34;;;;;;;6.97;4.70;;;;;;;4.33;96.21;94606.78;5041554;28;20999;-92
2020/12/07 08:41:13;;;;;;;5.30;4.07;;;;;;;4.30;96.52;94616.59;5043725;28;20406;-92
2020/12/07 08:43:44;;;;;;;7.73;4.60;;;;;;;4.38;96.46;94615.88;5041640;28;20471;-90
2020/12/07 08:46:13;;;;;;;13.80;5.97;;;;;;;4.38;96.01;94618.53;5040535;28;20573;-91
2020/12/07 08:48:40;;;;;;;9.43;4.40;;;;;;;4.32;95.81;94622.09;5044950;28;20958;-91
2020/12/07 08:51:07;;;;;;;9.00;4.20;;;;;;;4.43;95.52;94621.00;5044438;28;20874;-91
2020/12/07 08:53:35;;;;;;;6.40;4.60;;;;;;;4.47;95.39;94624.00;5041297;28;20433;-90
2020/12/07 08:56:04;;;;;;;4.60;4.10;;;;;;;4.44;95.50;94630.44;5041393;28;20435;-91
2020/12/07 08:58:32;;;;;;;4.03;3.60;;;;;;;4.49;95.71;94631.47;5042902;28;20837;-92
2020/12/07 09:01:00;;;;;;;8.50;4.50;;;;;;;4.42;95.49;94634.91;5042755;28;20427;-91
2020/12/07 09:03:26;;;;;;;7.37;4.17;;;;;;;4.31;96.45;94644.72;5042293;28;20547;-90
2020/12/07 09:05:53;;;;;;;5.33;3.90;;;;;;;4.49;96.28;94642.84;5041949;28;20518;-91
2020/12/07 09:08:19;;;;;;;6.20;5.17;;;;;;;4.38;96.09;94645.22;5044241;28;20465;-91
2020/12/07 09:10:45;;;;;;;5.60;4.10;;;;;;;4.45;96.69;94652.50;5041535;28;20421;-89
2020/12/07 09:13:12;;;;;;;6.23;4.10;;;;;;;4.56;95.89;94660.81;5042229;28;20424;-92
2020/12/07 09:15:39;;;;;;;7.70;4.57;;;;;;;4.58;95.97;94660.97;5042194;28;20474;-93
2020/12/07 09:18:06;;;;;;;6.10;4.50;;;;;;;4.57;95.70;94658.84;5042286;28;20471;-93
2020/12/07 09:20:32;;;;;;;9.10;4.60;;;;;;;4.56;95.68;94662.78;5043472;28;20799;-92
2020/12/07 09:22:58;;;;;;;5.77;4.20;;;;;;;4.50;95.87;94654.97;5041418;28;20470;-90
2020/12/07 09:25:25;;;;;;;6.00;3.90;;;;;;;4.70;95.44;94664.66;5040693;28;20794;-91
2020/12/07 09:27:51;;;;;;;6.60;3.40;;;;;;;4.68;94.46;94669.13;5040936;28;20418;-94
2020/12/07 09:30:18;;;;;;;11.87;5.27;;;;;;;4.74;94.72;94661.59;5041105;28;20447;-88
2020/12/07 09:32:45;;;;;;;9.10;5.00;;;;;;;4.75;94.99;94663.03;5041000;28;20414;-91
2020/12/07 09:35:13;;;;;;;7.23;4.50;;;;;;;4.81;95.09;94666.19;5042692;28;20447;-89
2020/12/07 09:37:40;;;;;;;6.90;4.60;;;;;;;4.90;94.74;94662.22;5040546;28;20843;-92
2020/12/07 09:40:07;;;;;;;4.03;3.60;;;;;;;4.92;94.42;94665.78;5040639;28;20441;-89
2020/12/07 09:42:34;;;;;;;6.63;4.50;;;;;;;4.94;93.26;94663.28;5039062;28;20447;-87
2020/12/07 09:45:00;;;;;;;6.70;4.60;;;;;;;4.89;93.70;94672.19;5037153;28;20417;-86
2020/12/07 09:47:27;;;;;;;6.60;4.70;;;;;;;4.97;93.71;94680.91;5036391;28;20523;-88
2020/12/07 09:49:55;;;;;;;8.67;4.50;;;;;;;4.95;93.69;94672.69;5038721;28;20990;-89
2020/12/07 09:52:21;;;;;;;4.93;3.90;;;;;;;5.05;94.04;94667.47;5041518;28;20797;-90
2020/12/07 09:54:47;;;;;;;4.37;3.90;;;;;;;5.12;93.90;94672.06;5040308;28;20857;-89
2020/12/07 09:57:14;;;;;;;5.63;4.00;;;;;;;5.08;93.50;94669.78;5051022;28;20458;-89
2020/12/07 09:59:41;;;;;;;5.03;3.73;;;;;;;5.07;93.59;94670.34;5057749;28;20482;-93
2020/12/07 10:02:07;;;;;;;6.23;3.97;;;;;;;5.07;93.30;94681.03;5057845;28;20442;-93
2020/12/07 10:04:34;;;;;;;4.07;3.60;;;;;;;5.14;93.15;94675.63;5057384;28;20458;-91
2020/12/07 10:07:01;;;;;;;5.93;4.00;;;;;;;5.17;92.59;94674.53;5057608;28;20438;-90
2020/12/07 10:09:28;;;;;;;8.37;4.00;;;;;;;5.10;93.03;94674.59;5056952;28;20448;-91
2020/12/07 10:11:54;;;;;;;3.80;3.43;;;;;;;5.19;91.77;94669.34;5056681;28;20442;-88
2020/12/07 10:14:20;;;;;;;4.63;3.40;;;;;;;5.21;91.79;94669.50;5056844;28;20431;-87
2020/12/07 10:16:47;;;;;;;4.50;3.80;;;;;;;5.27;91.17;94671.97;5049061;28;20480;-90
2020/12/07 10:19:13;;;;;;;4.23;3.17;;;;;;;5.24;91.07;94665.75;5058072;28;20419;-91
2020/12/07 10:29:26;;;;;;;4.10;3.30;;;;;;;5.18;90.98;94669.88;5839699;22;20498;-89
2020/12/07 10:31:53;;;;;;;5.10;3.70;;;;;;;5.05;91.82;94668.19;5039327;28;20434;-89
2020/12/07 10:34:19;;;;;;;5.97;3.73;;;;;;;5.01;91.64;94672.50;5040931;28;20446;-90
2020/12/07 10:36:46;;;;;;;6.63;3.90;;;;;;;5.14;91.17;94670.25;5042292;28;20514;-90
2020/12/07 10:39:13;;;;;;;5.80;4.23;;;;;;;5.27;91.44;94677.31;5041348;28;20414;-89
2020/12/07 10:41:39;;;;;;;7.63;3.67;;;;;;;5.32;90.80;94668.38;5041615;28;20450;-89
2020/12/07 10:44:06;;;;;;;5.60;3.83;;;;;;;5.31;90.31;94658.94;5039854;28;20451;-88
2020/12/07 10:46:37;;;;;;;6.00;4.00;;;;;;;5.16;90.77;94659.03;5038189;28;20462;-86
2020/12/07 10:49:03;;;;;;;4.67;3.83;;;;;;;5.09;91.46;94657.13;5038458;28;20402;-88
2020/12/07 10:51:30;;;;;;;7.50;4.40;;;;;;;5.04;91.10;94658.78;5039037;28;20431;-87
2020/12/07 10:53:56;;;;;;;5.53;4.60;;;;;;;5.20;91.94;94668.09;5036985;28;20457;-87
2020/12/07 10:56:22;;;;;;;5.43;3.87;;;;;;;5.40;91.04;94674.38;5037594;28;20431;-87
2020/12/07 10:58:49;;;;;;;5.20;3.47;;;;;;;5.50;88.82;94679.81;5037068;28;20464;-88
2020/12/07 11:01:16;;;;;;;6.17;3.90;;;;;;;5.40;89.29;94680.44;5041891;28;20542;-91
2020/12/07 11:03:45;;;;;;;5.17;3.90;;;;;;;5.56;89.45;94677.63;5038984;28;20428;-89
2020/12/07 11:06:14;;;;;;;8.97;4.50;;;;;;;5.70;88.54;94674.09;5048326;28;20467;-89
2020/12/07 11:08:49;;;;;;;3.43;3.10;;;;;;;5.86;88.07;94682.75;5051869;28;20437;-91
2020/12/07 11:11:16;;;;;;;5.10;3.47;;;;;;;5.86;87.27;94688.09;5039282;28;20760;-90
2020/12/07 11:13:42;;;;;;;6.30;4.20;;;;;;;5.58;87.33;94681.16;5043432;28;20809;-90
2020/12/07 11:16:12;;;;;;;4.20;3.80;;;;;;;5.54;87.95;94683.53;5043432;28;20427;-90
2020/12/07 11:18:38;;;;;;;5.27;3.67;;;;;;;5.43;88.36;94677.91;5036716;28;20818;-88
2020/12/07 11:21:12;;;;;;;5.00;3.50;;;;;;;5.42;88.58;94677.19;5038233;28;20461;-90
2020/12/07 11:23:40;;;;;;;5.43;3.73;;;;;;;5.37;89.33;94668.16;5046183;28;20409;-90
2020/12/07 11:26:07;;;;;;;4.90;3.57;;;;;;;5.58;90.07;94678.50;5040199;28;20577;-89
2020/12/07 11:28:34;;;;;;;3.63;3.33;;;;;;;5.60;90.03;94675.28;5043374;28;20497;-90
2020/12/07 11:31:02;;;;;;;6.67;4.50;;;;;;;5.64;89.61;94675.63;5050109;28;20433;-90
2020/12/07 11:33:30;;;;;;;7.87;4.00;;;;;;;5.68;89.63;94675.91;5043357;28;20951;-89
2020/12/07 11:35:57;;;;;;;9.30;4.27;;;;;;;5.72;88.48;94673.56;5041228;28;20850;-89
2020/12/07 11:38:26;;;;;;;5.23;4.30;;;;;;;5.64;87.96;94675.63;5039851;28;20445;-89
2020/12/07 11:41:05;;;;;;;9.50;4.60;;;;;;;5.62;87.52;94678.13;5040650;28;20417;-87
2020/12/07 11:43:40;;;;;;;6.30;5.03;;;;;;;5.52;87.40;94680.69;5039695;28;20454;-85
2020/12/07 11:46:07;;;;;;;5.77;4.37;;;;;;;5.46;86.96;94674.13;5038555;28;20522;-85
2020/12/07 11:48:33;;;;;;;4.80;4.30;;;;;;;5.47;87.54;94683.59;5039055;28;20475;-86
2020/12/07 11:50:59;;;;;;;5.60;4.50;;;;;;;5.37;88.68;94681.53;5039154;28;20872;-85
2020/12/07 11:53:27;;;;;;;5.97;4.30;;;;;;;5.31;88.92;94678.34;5038334;28;20852;-85
2020/12/07 11:55:53;;;;;;;7.40;5.03;;;;;;;5.23;89.94;94679.69;5039634;28;20782;-85
2020/12/07 11:58:19;;;;;;;4.97;4.27;;;;;;;5.30;89.05;94676.22;5038808;28;20471;-85
2020/12/07 12:00:46;;;;;;;5.93;4.70;;;;;;;5.32;89.22;94674.44;5038697;28;20418;-86
2020/12/07 12:03:12;;;;;;;7.20;4.40;;;;;;;5.45;88.43;94675.41;5038369;28;20443;-85
2020/12/07 12:05:39;;;;;;;12.90;8.90;;;;;;;5.26;88.69;94673.91;5037335;28;20440;-85
2020/12/07 12:08:05;;;;;;;6.60;5.27;;;;;;;5.31;88.01;94675.69;5038031;28;20463;-86
2020/12/07 12:10:33;;;;;;;4.90;4.27;;;;;;;5.29;88.31;94672.84;5040397;28;20458;-85
2020/12/07 12:12:59;;;;;;;4.53;4.13;;;;;;;5.24;89.21;94673.78;5038417;28;20426;-85
2020/12/07 12:15:25;;;;;;;5.73;4.57;;;;;;;5.35;88.71;94673.34;5039032;28;20447;-86